Time;durP1;ratioP1;P1;durP2;ratioP2;P2;SDS_P1;SDS_P2;PMS_P1;PMS_P2;Temp;Humidity;BMP_temperature;BMP_pressure;BME280_temperature;BME280_humidity;BME280_pressure;Samples;Min_cycle;Max_cycle;Signal;HPM_P1;HPM_P2
2021/06/25 00:00:22;;;;;;;14.50;11.15;;;;;;;14.69;52.62;95787.47;5054505;28;20090;-66
2021/06/25 00:02:48;;;;;;;13.98;11.45;;;;;;;14.78;52.83;95782.75;5063516;28;20584;-66
2021/06/25 00:05:13;;;;;;;12.38;10.25;;;;;;;15.13;51.84;95781.84;5054672;28;20073;-66
2021/06/25 00:07:39;;;;;;;14.82;11.50;;;;;;;15.35;51.60;95772.59;5064917;28;20108;-66
2021/06/25 00:10:05;;;;;;;15.32;11.35;;;;;;;15.27;51.72;95774.66;5058771;28;20594;-66
2021/06/25 00:12:30;;;;;;;14.32;11.15;;;;;;;14.74;52.97;95777.00;5063539;28;20097;-66
2021/06/25 00:14:56;;;;;;;12.95;10.57;;;;;;;15.01;52.39;95785.13;5050004;28;20104;-66
2021/06/25 00:17:21;;;;;;;16.23;12.35;;;;;;;15.00;52.53;95786.16;5050981;28;20085;-66
2021/06/25 00:19:47;;;;;;;17.23;12.63;;;;;;;14.58;53.49;95783.47;5052339;28;20208;-66
2021/06/25 00:22:12;;;;;;;17.80;13.75;;;;;;;14.68;53.42;95780.44;5065249;28;20082;-66
2021/06/25 00:24:38;;;;;;;15.88;12.48;;;;;;;14.82;53.09;95789.41;5051693;28;20102;-66
2021/06/25 00:27:04;;;;;;;15.23;11.30;;;;;;;14.78;53.00;95782.75;5056713;28;20101;-66
2021/06/25 00:29:29;;;;;;;12.30;10.75;;;;;;;14.72;53.48;95771.78;5054179;28;20076;-66
2021/06/25 00:31:55;;;;;;;16.25;12.82;;;;;;;14.04;54.79;95778.66;5056568;28;20171;-66
2021/06/25 00:34:20;;;;;;;16.00;12.32;;;;;;;13.95;55.19;95779.84;5054858;28;20080;-66
2021/06/25 00:36:45;;;;;;;15.15;12.38;;;;;;;13.88;55.34;95776.28;5059407;28;20100;-66
2021/06/25 00:39:11;;;;;;;14.80;11.10;;;;;;;14.05;55.15;95774.97;5069134;28;20332;-66
2021/06/25 00:41:37;;;;;;;15.82;12.05;;;;;;;13.64;56.50;95775.69;5052955;28;20120;-66
2021/06/25 00:44:02;;;;;;;13.90;11.23;;;;;;;13.77;55.76;95772.28;5056677;28;20250;-66
2021/06/25 00:46:30;;;;;;;14.50;12.18;;;;;;;13.41;56.77;95779.41;5053085;28;20069;-66
2021/06/25 00:48:55;;;;;;;15.60;10.93;;;;;;;13.68;55.52;95771.59;5066311;28;20631;-66
2021/06/25 00:51:21;;;;;;;18.85;12.65;;;;;;;13.94;55.16;95773.66;5056472;28;20135;-66
2021/06/25 00:53:46;;;;;;;16.17;13.43;;;;;;;13.89;55.43;95778.78;5059326;28;20134;-66
2021/06/25 00:56:12;;;;;;;15.52;11.88;;;;;;;14.07;54.98;95774.78;5054893;28;20629;-66
2021/06/25 00:58:38;;;;;;;19.10;12.73;;;;;;;14.41;54.17;95767.75;5051879;28;20243;-66
2021/06/25 01:01:03;;;;;;;19.92;14.50;;;;;;;14.16;54.48;95770.09;5054757;28;20488;-66
2021/06/25 01:03:29;;;;;;;18.50;13.23;;;;;;;14.05;54.90;95768.81;5062087;28;20111;-66
2021/06/25 01:05:54;;;;;;;19.42;13.43;;;;;;;14.16;54.29;95770.09;5052863;28;20074;-66
2021/06/25 01:08:19;;;;;;;16.13;10.77;;;;;;;13.98;54.78;95762.56;5064390;28;20182;-66
2021/06/25 01:10:45;;;;;;;17.48;11.65;;;;;;;13.88;55.34;95769.13;5051408;28;20462;-66
2021/06/25 01:13:10;;;;;;;12.88;10.70;;;;;;;14.19;53.38;95764.34;5037705;28;20224;-66
2021/06/25 01:15:36;;;;;;;13.23;11.13;;;;;;;14.12;54.03;95758.97;5072520;28;20116;-66
2021/06/25 01:18:02;;;;;;;13.50;10.57;;;;;;;14.51;53.09;95770.06;5051404;28;20085;-66
2021/06/25 01:20:29;;;;;;;13.88;10.80;;;;;;;14.69;52.57;95768.69;5061021;28;20104;-66
2021/06/25 01:22:55;;;;;;;14.30;11.37;;;;;;;14.87;52.09;95760.13;5063732;28;20154;-66
2021/06/25 01:25:25;;;;;;;17.48;11.57;;;;;;;14.42;53.49;95773.94;5031057;28;20073;-66
2021/06/25 01:27:54;;;;;;;18.20;12.68;;;;;;;14.17;53.99;95769.06;5052705;28;20097;-66
2021/06/25 01:30:22;;;;;;;16.02;11.38;;;;;;;14.16;54.01;95768.25;5031972;28;20081;-66
2021/06/25 01:32:47;;;;;;;14.45;12.07;;;;;;;14.15;54.52;95761.25;5059666;28;20064;-66
2021/06/25 01:35:13;;;;;;;15.80;12.73;;;;;;;14.11;53.97;95757.28;5060879;28;20193;-66
2021/06/25 01:37:39;;;;;;;15.57;11.30;;;;;;;14.26;53.82;95761.69;5055765;28;20120;-66
2021/06/25 01:40:06;;;;;;;15.23;12.98;;;;;;;14.48;53.35;95762.41;5059340;28;20109;-66
2021/06/25 01:42:32;;;;;;;15.57;12.27;;;;;;;14.17;53.84;95755.69;5063704;28;20137;-66
2021/06/25 01:44:59;;;;;;;17.45;12.88;;;;;;;13.67;55.25;95760.06;5031695;28;20132;-66
2021/06/25 01:47:24;;;;;;;17.63;13.25;;;;;;;13.98;54.87;95762.56;5050706;28;20515;-66
2021/06/25 01:49:50;;;;;;;17.45;12.50;;;;;;;13.95;54.97;95764.59;5049933;28;20086;-66
2021/06/25 01:52:18;;;;;;;20.20;13.43;;;;;;;13.43;56.15;95764.00;5055863;28;20101;-66
2021/06/25 01:54:45;;;;;;;18.92;14.02;;;;;;;13.08;57.12;95761.22;5055123;28;20107;-66
2021/06/25 01:57:10;;;;;;;20.00;15.00;;;;;;;13.39;56.87;95760.88;5061715;28;20158;-66
2021/06/25 01:59:36;;;;;;;20.52;15.20;;;;;;;13.75;55.83;95755.59;5072592;28;20121;-66
2021/06/25 02:02:01;;;;;;;21.23;15.05;;;;;;;13.20;57.05;95754.34;5064655;28;20076;-66
2021/06/25 02:04:27;;;;;;;21.63;15.63;;;;;;;13.13;57.46;95748.09;5050775;28;20104;-66
2021/06/25 02:06:52;;;;;;;20.08;14.68;;;;;;;12.92;57.73;95742.53;5057001;28;20108;-66
2021/06/25 02:09:17;;;;;;;12.75;10.15;;;;;;;13.41;55.91;95731.28;5058031;28;20083;-66
2021/06/25 02:11:43;;;;;;;18.67;13.73;;;;;;;13.30;56.19;95724.63;5058207;28;20100;-66
2021/06/25 02:14:08;;;;;;;19.25;13.98;;;;;;;13.31;56.25;95721.75;5054759;28;20081;-66
2021/06/25 02:16:34;;;;;;;19.40;14.57;;;;;;;13.61;55.07;95726.09;5038308;28;20174;-66
2021/06/25 02:18:59;;;;;;;17.23;13.15;;;;;;;13.83;54.14;95721.50;5058907;28;20093;-66
2021/06/25 02:21:25;;;;;;;20.70;15.77;;;;;;;13.93;54.49;95728.38;5049583;28;20348;-66
2021/06/25 02:23:50;;;;;;;17.77;15.68;;;;;;;13.94;54.24;95728.16;5046563;28;20112;-66
2021/06/25 02:26:16;;;;;;;20.45;16.13;;;;;;;13.84;54.41;95730.38;5046090;28;20431;-66
2021/06/25 02:28:41;;;;;;;19.10;14.32;;;;;;;13.63;55.25;95739.28;5047169;28;20113;-66
2021/06/25 02:31:07;;;;;;;17.90;15.05;;;;;;;13.33;56.10;95734.94;5048161;28;20131;-66
2021/06/25 02:33:32;;;;;;;17.30;12.70;;;;;;;13.67;54.95;95736.00;5053013;28;20081;-66
2021/06/25 02:35:57;;;;;;;23.25;16.75;;;;;;;13.73;55.13;95738.94;5048932;28;20517;-66
2021/06/25 02:38:23;;;;;;;18.52;14.70;;;;;;;13.59;54.96;95733.47;5047983;28;20091;-66
2021/06/25 02:40:48;;;;;;;17.60;14.85;;;;;;;13.90;54.72;95731.47;5051822;28;20112;-66
2021/06/25 02:43:14;;;;;;;19.83;14.82;;;;;;;13.70;55.13;95730.25;5046565;28;20117;-66
2021/06/25 02:45:39;;;;;;;17.33;13.15;;;;;;;14.07;54.22;95731.94;5060348;28;20069;-66
2021/06/25 02:48:05;;;;;;;15.88;12.15;;;;;;;14.17;53.39;95724.38;5048398;28;20539;-66
2021/06/25 02:50:31;;;;;;;18.23;13.13;;;;;;;14.42;53.15;95723.88;5050506;28;20572;-66
2021/06/25 02:52:56;;;;;;;17.38;14.18;;;;;;;14.37;52.88;95720.97;5052527;28;20078;-66
2021/06/25 02:55:22;;;;;;;18.55;14.88;;;;;;;13.87;54.59;95724.59;5050911;28;20166;-66
2021/06/25 02:57:47;;;;;;;20.10;14.77;;;;;;;14.04;53.80;95730.50;5050301;28;20097;-66
2021/06/25 03:00:15;;;;;;;19.13;14.75;;;;;;;13.57;54.84;95739.00;5051447;28;20105;-66
2021/06/25 03:02:43;;;;;;;17.75;13.10;;;;;;;13.63;55.06;95740.06;5066615;28;20576;-66
2021/06/25 03:05:10;;;;;;;17.23;11.98;;;;;;;13.44;55.23;95737.03;5051829;28;20077;-66
2021/06/25 03:07:35;;;;;;;21.17;15.45;;;;;;;13.32;55.72;95738.59;5066830;28;20109;-66
2021/06/25 03:10:01;;;;;;;23.50;16.60;;;;;;;13.18;56.12;95741.16;5059717;28;20509;-66
2021/06/25 03:12:26;;;;;;;21.17;15.85;;;;;;;13.05;56.66;95746.38;5067782;28;20098;-66
2021/06/25 03:14:52;;;;;;;18.23;14.65;;;;;;;12.61;57.86;95740.94;5052506;28;20113;-66
2021/06/25 03:17:18;;;;;;;20.17;15.98;;;;;;;12.65;57.71;95734.22;5053839;28;20573;-66
2021/06/25 03:19:43;;;;;;;22.60;15.20;;;;;;;12.38;58.69;95739.25;5058745;28;20097;-66
2021/06/25 03:22:08;;;;;;;18.50;14.95;;;;;;;12.35;58.84;95739.66;5070364;28;20081;-66
2021/06/25 03:24:34;;;;;;;18.77;14.88;;;;;;;12.31;58.34;95740.19;5052489;28;20112;-66
2021/06/25 03:26:59;;;;;;;17.33;13.48;;;;;;;12.40;58.36;95742.56;5055450;28;20116;-66
2021/06/25 03:29:25;;;;;;;16.88;13.73;;;;;;;12.52;58.07;95723.41;5057048;28;20068;-66
2021/06/25 03:31:50;;;;;;;19.70;15.13;;;;;;;12.36;58.10;95721.75;5049834;28;20461;-66
2021/06/25 03:34:16;;;;;;;19.85;14.50;;;;;;;12.57;57.58;95723.66;5049046;28;20107;-66
2021/06/25 03:36:41;;;;;;;18.95;14.63;;;;;;;12.54;57.32;95732.03;5055304;28;20093;-66
2021/06/25 03:39:07;;;;;;;16.48;13.13;;;;;;;12.62;57.25;95721.22;5047337;28;20600;-66
2021/06/25 03:41:32;;;;;;;18.27;14.48;;;;;;;12.91;56.20;95722.16;5044221;28;20097;-66
2021/06/25 03:43:57;;;;;;;24.75;17.00;;;;;;;12.84;56.44;95718.59;5044570;28;20524;-66
2021/06/25 03:46:23;;;;;;;21.95;16.63;;;;;;;12.78;56.37;95722.84;5062215;28;20426;-66
2021/06/25 03:48:49;;;;;;;24.55;16.25;;;;;;;12.14;57.97;95724.38;5048740;28;20446;-66
2021/06/25 03:51:15;;;;;;;22.30;17.63;;;;;;;12.14;58.30;95727.88;5051216;28;20108;-66
2021/06/25 03:53:41;;;;;;;19.08;13.98;;;;;;;12.23;58.52;95725.94;5056502;28;20078;-66
2021/06/25 03:56:12;;;;;;;23.38;17.45;;;;;;;11.86;58.94;95725.81;5051403;28;20531;-66
2021/06/25 03:58:42;;;;;;;23.20;17.42;;;;;;;12.14;58.40;95733.19;5052483;28;20101;-66
2021/06/25 04:01:08;;;;;;;22.42;17.90;;;;;;;11.93;58.76;95733.09;5052430;28;20557;-66
2021/06/25 04:03:35;;;;;;;25.80;18.15;;;;;;;12.30;57.41;95731.34;5068131;28;20116;-66
2021/06/25 04:06:00;;;;;;;19.38;15.27;;;;;;;12.20;58.26;95741.50;5057084;28;20557;-66
2021/06/25 04:08:27;;;;;;;25.10;18.98;;;;;;;12.17;57.91;95733.84;5069065;28;20109;-66
2021/06/25 04:10:53;;;;;;;25.90;18.23;;;;;;;12.52;56.84;95736.75;5054079;28;20166;-66
2021/06/25 04:13:18;;;;;;;25.42;20.90;;;;;;;12.09;58.12;95740.94;5055204;28;20081;-66
2021/06/25 04:15:44;;;;;;;26.15;20.48;;;;;;;12.12;58.52;95740.56;5054924;28;20135;-66
2021/06/25 04:18:09;;;;;;;22.35;17.00;;;;;;;12.51;57.48;95740.44;5056259;28;20180;-66
2021/06/25 04:20:35;;;;;;;24.40;19.75;;;;;;;12.84;56.48;95733.78;5055374;28;20098;-66
2021/06/25 04:23:00;;;;;;;23.08;17.75;;;;;;;12.95;56.07;95733.28;5059456;28;20568;-66
2021/06/25 04:25:25;;;;;;;26.98;19.83;;;;;;;12.41;57.19;95733.53;5054378;28;20530;-66
2021/06/25 04:27:51;;;;;;;19.77;16.13;;;;;;;12.42;57.42;95735.19;5057444;28;20643;-66
2021/06/25 04:30:17;;;;;;;20.75;15.25;;;;;;;12.44;57.35;95726.19;5057907;28;20089;-66
2021/06/25 04:32:43;;;;;;;22.65;16.42;;;;;;;12.61;57.09;95724.94;5063677;28;20404;-66
2021/06/25 04:35:09;;;;;;;27.73;20.52;;;;;;;12.69;57.00;95718.66;5059657;28;20458;-66
2021/06/25 04:37:34;;;;;;;31.77;21.00;;;;;;;12.90;56.55;95723.19;5047569;28;20665;-66
2021/06/25 04:40:00;;;;;;;31.58;22.88;;;;;;;13.19;55.75;95717.91;5056997;28;20101;-66
2021/06/25 04:42:25;;;;;;;29.23;21.30;;;;;;;11.96;58.92;95730.88;5065142;28;20469;-66
2021/06/25 04:44:51;;;;;;;29.55;22.42;;;;;;;11.59;60.41;95727.28;5054206;28;20065;-66
2021/06/25 04:47:16;;;;;;;30.70;22.17;;;;;;;11.25;61.42;95735.56;5064265;28;20109;-66
2021/06/25 04:49:42;;;;;;;29.05;19.90;;;;;;;10.83;62.25;95731.50;5054921;28;20089;-65
2021/06/25 04:52:07;;;;;;;29.42;21.42;;;;;;;10.70;63.17;95726.75;5050337;28;20844;-65
2021/06/25 04:54:33;;;;;;;33.08;24.38;;;;;;;10.75;62.63;95730.56;5051208;28;20522;-65
2021/06/25 04:56:58;;;;;;;32.63;20.13;;;;;;;10.44;63.51;95739.38;5067086;28;20441;-66
2021/06/25 04:59:24;;;;;;;38.38;26.63;;;;;;;9.97;64.79;95735.75;5063215;28;20558;-66
2021/06/25 05:01:50;;;;;;;42.70;28.60;;;;;;;9.80;65.88;95738.41;5067803;28;20143;-66
2021/06/25 05:04:15;;;;;;;31.58;20.67;;;;;;;9.40;67.13;95737.50;5053241;28;20093;-66
2021/06/25 05:06:40;;;;;;;39.70;23.98;;;;;;;9.34;67.82;95739.00;5053570;28;20508;-66
2021/06/25 05:09:06;;;;;;;42.78;28.10;;;;;;;9.77;66.04;95730.81;5051973;28;20089;-66
2021/06/25 05:11:32;;;;;;;41.38;25.58;;;;;;;9.83;65.97;95726.63;5058671;28;20117;-66
2021/06/25 05:13:57;;;;;;;40.08;26.38;;;;;;;10.00;65.09;95730.09;5053553;28;20312;-66
2021/06/25 05:16:23;;;;;;;42.75;28.98;;;;;;;10.21;64.72;95739.34;5056357;28;20123;-66
2021/06/25 05:18:48;;;;;;;34.45;26.45;;;;;;;10.65;63.74;95739.78;5054059;28;20101;-66
2021/06/25 05:21:13;;;;;;;41.33;26.30;;;;;;;10.46;63.24;95742.72;5056786;28;20292;-66
2021/06/25 05:23:39;;;;;;;42.92;32.03;;;;;;;10.26;63.70;95744.16;5060104;28;20124;-66
2021/06/25 05:26:04;;;;;;;45.55;31.63;;;;;;;10.52;63.51;95737.69;5057825;28;20077;-66
2021/06/25 05:28:30;;;;;;;47.53;31.55;;;;;;;10.52;63.55;95735.03;5056118;28;20100;-66
2021/06/25 05:30:56;;;;;;;43.75;29.35;;;;;;;10.44;63.71;95733.25;5075211;28;20128;-66
2021/06/25 05:33:21;;;;;;;36.92;26.45;;;;;;;10.75;62.61;95729.75;5066431;28;20077;-66
2021/06/25 05:35:48;;;;;;;41.10;25.45;;;;;;;10.29;63.99;95735.78;5062052;28;20104;-66
2021/06/25 05:38:14;;;;;;;39.55;29.90;;;;;;;10.49;63.48;95733.53;5048706;28;20306;-65
2021/06/25 05:40:40;;;;;;;45.83;28.65;;;;;;;11.03;61.14;95736.38;5062394;28;20128;-65
2021/06/25 05:43:06;;;;;;;46.53;31.80;;;;;;;11.30;60.30;95736.84;5048786;28;20122;-66
2021/06/25 05:45:32;;;;;;;48.40;31.67;;;;;;;11.51;59.05;95741.50;5051843;28;20142;-66
2021/06/25 05:47:58;;;;;;;43.90;30.00;;;;;;;11.60;58.49;95737.75;5071707;28;20105;-66
2021/06/25 05:50:23;;;;;;;44.90;30.58;;;;;;;11.57;58.73;95740.78;5064669;28;20312;-65
2021/06/25 05:52:49;;;;;;;45.25;29.85;;;;;;;11.78;58.36;95749.91;5059511;28;20103;-65
2021/06/25 05:55:14;;;;;;;41.28;29.52;;;;;;;11.96;57.71;95746.03;5071174;28;20101;-66
2021/06/25 05:57:40;;;;;;;42.50;29.20;;;;;;;12.14;56.27;95754.56;5047992;28;20096;-66
2021/06/25 06:00:07;;;;;;;39.22;26.15;;;;;;;11.95;57.12;95755.06;5054475;28;20116;-66
2021/06/25 06:02:32;;;;;;;43.00;29.48;;;;;;;11.79;57.70;95756.91;5063744;28;20122;-66
2021/06/25 06:04:57;;;;;;;39.28;28.25;;;;;;;11.99;56.93;95757.19;5058288;28;20179;-66
2021/06/25 06:07:23;;;;;;;37.22;24.77;;;;;;;12.20;56.42;95746.84;5064520;28;20112;-66
2021/06/25 06:09:48;;;;;;;41.55;28.27;;;;;;;12.59;55.46;95744.84;5046557;28;20077;-66
2021/06/25 06:12:14;;;;;;;36.88;26.65;;;;;;;12.76;55.59;95743.59;5050400;28;20097;-66
2021/06/25 06:14:39;;;;;;;43.50;26.83;;;;;;;12.90;54.29;95746.41;5045426;28;20158;-66
2021/06/25 06:17:05;;;;;;;38.05;27.05;;;;;;;12.84;54.74;95750.66;5046691;28;20086;-66
2021/06/25 06:19:38;;;;;;;43.30;29.13;;;;;;;12.88;53.69;95754.59;5050474;28;20193;-66
2021/06/25 06:33:08;;;;;;;35.67;23.33;;;;;;;12.89;53.50;95761.59;5055683;28;20616;-66
2021/06/25 06:35:35;;;;;;;39.17;27.10;;;;;;;12.64;54.13;95759.28;5048445;28;20112;-66
2021/06/25 06:38:02;;;;;;;39.63;29.20;;;;;;;12.45;56.33;95755.38;5063769;28;20108;-65
2021/06/25 06:40:29;;;;;;;39.63;25.33;;;;;;;12.44;54.56;95766.22;5052953;28;20175;-66
2021/06/25 06:42:54;;;;;;;43.95;30.40;;;;;;;12.72;54.83;95758.31;5074642;28;20113;-66
2021/06/25 06:45:20;;;;;;;39.83;28.70;;;;;;;13.31;53.18;95763.69;5062392;28;20093;-65
2021/06/25 06:47:45;;;;;;;38.15;27.77;;;;;;;13.67;52.37;95776.13;5051834;28;20110;-65
2021/06/25 06:50:11;;;;;;;39.90;28.98;;;;;;;13.08;53.18;95770.06;5056243;28;20092;-65
2021/06/25 06:52:36;;;;;;;41.50;30.92;;;;;;;12.51;54.67;95772.50;5053219;28;20562;-65
2021/06/25 06:55:02;;;;;;;38.70;26.08;;;;;;;12.27;55.42;95785.09;5054016;28;20104;-65
2021/06/25 06:57:28;;;;;;;42.67;30.98;;;;;;;12.73;54.59;95780.53;5053286;28;20710;-66
2021/06/25 06:59:53;;;;;;;38.90;29.20;;;;;;;12.13;55.57;95786.75;5046679;28;20109;-65
2021/06/25 07:02:19;;;;;;;40.70;30.17;;;;;;;11.87;55.83;95796.00;5046864;28;20069;-65
2021/06/25 07:04:44;;;;;;;42.15;29.55;;;;;;;12.11;55.65;95788.78;5042641;28;20422;-64
2021/06/25 07:07:10;;;;;;;39.35;27.70;;;;;;;12.83;54.52;95789.09;5044504;28;20121;-65
2021/06/25 07:09:35;;;;;;;38.47;27.60;;;;;;;13.20;51.87;95791.78;5053456;28;20081;-66
2021/06/25 07:12:01;;;;;;;40.63;29.83;;;;;;;13.76;51.19;95787.50;5058742;28;20096;-67
2021/06/25 07:14:26;;;;;;;36.40;27.35;;;;;;;14.30;50.88;95789.72;5044095;28;20092;-66
2021/06/25 07:16:52;;;;;;;36.30;27.38;;;;;;;14.50;50.10;95791.69;5044912;28;20089;-66
2021/06/25 07:19:17;;;;;;;32.85;25.15;;;;;;;14.69;48.77;95796.31;5047181;28;20096;-67
2021/06/25 07:21:42;;;;;;;31.90;25.25;;;;;;;14.67;47.61;95801.06;5053109;28;20861;-68
2021/06/25 07:24:08;;;;;;;35.78;25.80;;;;;;;14.63;49.01;95797.13;5049227;28;20120;-68
2021/06/25 07:26:33;;;;;;;35.22;26.33;;;;;;;14.91;49.41;95798.06;5058826;28;20080;-67
2021/06/25 07:28:59;;;;;;;33.65;26.15;;;;;;;14.60;49.79;95800.19;5058425;28;20092;-67
2021/06/25 07:31:24;;;;;;;35.53;27.05;;;;;;;14.41;49.09;95802.56;5050923;28;20150;-67
2021/06/25 07:33:50;;;;;;;33.05;26.00;;;;;;;15.05;48.56;95799.75;5050598;28;20408;-67
2021/06/25 07:36:17;;;;;;;37.88;27.88;;;;;;;14.51;48.61;95804.06;5062551;28;20567;-68
2021/06/25 07:38:42;;;;;;;39.50;29.05;;;;;;;15.18;47.65;95803.50;5057425;28;20093;-66
2021/06/25 07:41:08;;;;;;;40.03;30.10;;;;;;;15.61;45.27;95799.69;5055422;28;20120;-66
2021/06/25 07:43:33;;;;;;;34.78;24.92;;;;;;;15.08;45.37;95804.72;5073290;28;20493;-67
2021/06/25 07:45:58;;;;;;;39.60;29.02;;;;;;;14.79;47.67;95805.88;5054098;28;20549;-67
2021/06/25 07:48:24;;;;;;;37.80;29.20;;;;;;;15.15;46.39;95796.69;5056768;28;20441;-67
2021/06/25 07:50:49;;;;;;;35.70;28.75;;;;;;;15.24;45.97;95803.50;5055115;28;20105;-67
2021/06/25 07:53:15;;;;;;;36.50;28.85;;;;;;;15.17;47.73;95802.69;5051508;28;20090;-66
2021/06/25 07:55:43;;;;;;;37.42;27.88;;;;;;;15.23;47.25;95801.06;5051095;28;20158;-66
2021/06/25 07:58:13;;;;;;;37.05;27.85;;;;;;;15.67;45.45;95798.84;5066250;28;20548;-67
2021/06/25 08:00:39;;;;;;;39.28;30.02;;;;;;;15.39;46.16;95793.63;5052199;28;20276;-68
2021/06/25 08:03:04;;;;;;;36.55;28.13;;;;;;;15.26;46.16;95794.47;5055101;28;20100;-66
2021/06/25 08:05:30;;;;;;;35.78;28.40;;;;;;;15.19;45.97;95792.56;5056956;28;20085;-67
2021/06/25 08:07:55;;;;;;;38.42;28.08;;;;;;;15.47;46.46;95801.50;5045980;28;21343;-66
2021/06/25 08:10:20;;;;;;;36.13;26.60;;;;;;;15.68;47.10;95797.84;5055992;28;20085;-67
2021/06/25 08:12:46;;;;;;;40.45;28.92;;;;;;;15.03;46.41;95792.97;5043493;28;20085;-67
2021/06/25 08:15:12;;;;;;;40.05;30.27;;;;;;;15.24;46.72;95802.69;5054056;28;20109;-66
2021/06/25 08:17:37;;;;;;;36.83;26.05;;;;;;;14.71;47.59;95793.44;5048936;28;20504;-66
2021/06/25 08:20:04;;;;;;;40.75;30.55;;;;;;;15.23;47.17;95793.81;5051188;28;20108;-66
2021/06/25 08:22:29;;;;;;;43.75;29.67;;;;;;;15.73;45.34;95792.66;5048939;28;20100;-66
2021/06/25 08:24:55;;;;;;;41.83;30.80;;;;;;;15.22;47.13;95797.53;5054355;28;20081;-66
2021/06/25 08:27:20;;;;;;;39.20;27.10;;;;;;;14.77;46.58;95798.03;5054217;28;20104;-67
2021/06/25 08:29:46;;;;;;;41.67;30.20;;;;;;;14.46;46.92;95802.78;5059896;28;20073;-66
2021/06/25 08:32:11;;;;;;;39.80;29.38;;;;;;;14.28;47.63;95797.16;5049973;28;20097;-66
2021/06/25 08:34:37;;;;;;;44.20;30.65;;;;;;;14.69;47.90;95801.66;5047706;28;20328;-67
2021/06/25 08:37:02;;;;;;;40.58;31.65;;;;;;;14.52;49.07;95800.38;5052304;28;20093;-67
2021/06/25 08:39:30;;;;;;;42.80;31.23;;;;;;;14.68;48.31;95804.53;5055916;28;20461;-67
2021/06/25 08:41:55;;;;;;;43.90;27.98;;;;;;;14.57;47.02;95798.75;5053266;28;20085;-67
2021/06/25 08:44:21;;;;;;;40.20;28.45;;;;;;;13.93;49.70;95801.47;5052392;28;20663;-67
2021/06/25 08:46:46;;;;;;;41.30;30.70;;;;;;;14.66;48.44;95801.25;5038134;28;20124;-67
2021/06/25 08:49:12;;;;;;;40.30;29.13;;;;;;;14.81;47.77;95801.13;5057434;28;20537;-67
2021/06/25 08:51:37;;;;;;;41.72;30.17;;;;;;;15.15;45.42;95803.91;5021865;28;20116;-66
2021/06/25 08:54:03;;;;;;;39.33;27.30;;;;;;;15.19;45.38;95800.63;5069702;28;20515;-67
2021/06/25 08:56:30;;;;;;;37.63;28.48;;;;;;;15.46;44.62;95797.16;5053519;28;20105;-67
2021/06/25 08:58:55;;;;;;;39.22;27.25;;;;;;;15.19;45.94;95800.63;5070424;28;20105;-66
2021/06/25 09:01:21;;;;;;;36.38;27.08;;;;;;;15.22;45.37;95797.53;5062359;28;20069;-80
2021/06/25 09:03:52;;;;;;;37.00;27.98;;;;;;;15.66;43.44;95793.69;5056196;28;20135;-79
2021/06/25 09:06:17;;;;;;;35.75;26.65;;;;;;;15.53;44.51;95795.28;5054927;28;20079;-81
2021/06/25 09:08:43;;;;;;;36.25;24.48;;;;;;;14.84;45.41;95801.56;5098195;28;20097;-79
2021/06/25 09:11:25;;;;;;;34.60;26.52;;;;;;;15.46;44.18;95803.34;5074278;28;20117;-80
2021/06/25 09:13:57;;;;;;;32.63;23.70;;;;;;;15.52;42.39;95801.69;5069062;28;20084;-79
2021/06/25 09:16:27;;;;;;;31.08;21.70;;;;;;;15.51;43.32;95797.38;5091769;28;20163;-80
2021/06/25 09:19:19;;;;;;;31.88;24.17;;;;;;;16.08;42.13;95796.16;5050584;28;20103;-75
2021/06/25 09:22:01;;;;;;;30.33;21.27;;;;;;;16.50;40.28;95799.41;5054623;28;20074;-76
2021/06/25 09:24:27;;;;;;;29.77;22.45;;;;;;;16.22;41.07;95792.38;5052341;28;20101;-75
2021/06/25 09:27:00;;;;;;;25.73;19.88;;;;;;;16.18;40.71;95798.41;5082484;28;20691;-75
2021/06/25 09:29:29;;;;;;;27.92;21.30;;;;;;;16.74;42.00;95799.72;5059052;28;20092;-75
2021/06/25 09:32:02;;;;;;;29.98;22.42;;;;;;;16.77;39.93;95787.72;5076229;28;20135;-76
2021/06/25 09:34:39;;;;;;;26.58;21.25;;;;;;;17.15;41.30;95788.78;5079646;28;20069;-75
2021/06/25 09:37:05;;;;;;;28.23;21.58;;;;;;;17.40;39.01;95796.06;5070670;28;20089;-76
2021/06/25 09:39:31;;;;;;;26.17;19.40;;;;;;;17.92;38.85;95793.22;5023920;28;20146;-77
2021/06/25 09:41:56;;;;;;;27.30;20.50;;;;;;;18.19;37.16;95789.47;5047015;28;20069;-77
2021/06/25 09:44:24;;;;;;;25.27;19.42;;;;;;;18.02;36.67;95790.00;5041380;28;20110;-76
2021/06/25 09:46:51;;;;;;;24.13;17.52;;;;;;;18.26;36.13;95786.69;5072335;28;20457;-76
2021/06/25 09:49:22;;;;;;;25.05;19.23;;;;;;;18.54;35.26;95783.47;5060731;28;20081;-77
2021/06/25 09:51:57;;;;;;;21.67;18.23;;;;;;;18.95;35.08;95788.41;5046559;28;20115;-78
2021/06/25 09:54:22;;;;;;;26.80;18.23;;;;;;;19.14;35.21;95788.38;5066478;28;20111;-78
2021/06/25 10:04:58;;;;;;;23.02;15.88;;;;;;;19.37;35.88;95784.13;5061149;28;20626;-78
2021/06/25 10:07:27;;;;;;;21.60;14.95;;;;;;;18.74;36.38;95792.41;5076106;28;20154;-78
2021/06/25 10:09:58;;;;;;;22.13;17.98;;;;;;;19.20;36.68;95777.47;5064913;28;20109;-78
2021/06/25 10:12:24;;;;;;;20.80;16.05;;;;;;;18.51;35.50;95775.00;5030967;28;20113;-78
2021/06/25 10:14:51;;;;;;;20.77;15.70;;;;;;;17.98;37.11;95786.09;5069131;28;20109;-75
2021/06/25 10:17:17;;;;;;;19.70;14.82;;;;;;;18.20;35.46;95788.41;5041156;28;20093;-75
2021/06/25 10:19:43;;;;;;;18.85;13.68;;;;;;;18.13;34.62;95768.78;5060325;28;20170;-76
2021/06/25 10:22:09;;;;;;;18.55;13.88;;;;;;;18.45;35.07;95787.50;5061714;28;20117;-76
2021/06/25 10:24:35;;;;;;;20.42;16.05;;;;;;;16.98;37.82;95783.88;5060811;28;20445;-76
2021/06/25 10:27:02;;;;;;;17.63;13.70;;;;;;;18.02;36.14;95770.34;5055945;28;20108;-75
2021/06/25 10:29:27;;;;;;;17.10;12.93;;;;;;;18.68;35.98;95765.31;5033013;28;20160;-75
2021/06/25 10:31:52;;;;;;;20.13;11.85;;;;;;;18.55;36.25;95779.72;5047967;28;20116;-73
2021/06/25 10:34:18;;;;;;;18.15;13.35;;;;;;;18.55;36.47;95776.19;5061044;28;20562;-75
2021/06/25 10:36:43;;;;;;;19.58;14.63;;;;;;;18.66;36.21;95770.09;5048583;28;20163;-77
2021/06/25 10:39:10;;;;;;;14.95;12.68;;;;;;;19.18;34.67;95776.84;5066705;28;20112;-76
2021/06/25 10:41:57;;;;;;;19.00;13.68;;;;;;;19.36;33.97;95779.75;5050650;28;20146;-76
2021/06/25 10:44:42;;;;;;;16.65;12.95;;;;;;;19.13;34.16;95768.63;5053456;28;20121;-76
2021/06/25 10:47:15;;;;;;;16.27;10.63;;;;;;;18.44;36.64;95780.47;5059465;28;20112;-76
2021/06/25 10:49:59;;;;;;;17.95;13.32;;;;;;;18.23;36.89;95784.44;5057410;28;20108;-75
2021/06/25 10:52:28;;;;;;;15.70;12.73;;;;;;;18.50;35.73;95779.59;5051913;28;20101;-75
2021/06/25 10:55:03;;;;;;;15.82;12.10;;;;;;;18.76;35.59;95774.94;5026132;28;20592;-76
2021/06/25 10:57:29;;;;;;;16.60;12.10;;;;;;;18.42;34.71;95779.88;5065886;28;20100;-75
2021/06/25 10:59:55;;;;;;;17.42;12.32;;;;;;;18.36;35.08;95770.00;5084468;28;20104;-77
2021/06/25 11:02:40;;;;;;;16.15;12.27;;;;;;;18.40;36.16;95782.81;5067537;28;20177;-77
2021/06/25 11:05:25;;;;;;;15.45;11.73;;;;;;;19.07;35.05;95774.97;5071831;28;20213;-76
2021/06/25 11:07:52;;;;;;;17.80;13.02;;;;;;;18.56;33.98;95770.59;5068575;28;20113;-74
2021/06/25 11:10:29;;;;;;;15.17;11.07;;;;;;;19.15;34.06;95769.25;5069043;28;20122;-77
2021/06/25 11:13:21;;;;;;;16.95;11.38;;;;;;;18.59;34.27;95776.63;5057657;28;20108;-76
2021/06/25 11:15:48;;;;;;;15.20;11.35;;;;;;;19.71;33.38;95779.84;5067565;28;20135;-76
2021/06/25 11:18:15;;;;;;;14.77;11.48;;;;;;;18.87;34.38;95777.94;5069118;28;20097;-76
2021/06/25 11:20:55;;;;;;;14.85;11.55;;;;;;;17.30;37.34;95771.53;5084735;28;20737;-76
2021/06/25 11:23:26;;;;;;;14.40;10.68;;;;;;;19.42;35.18;95765.34;5064798;28;20449;-78
2021/06/25 11:25:52;;;;;;;14.57;11.23;;;;;;;19.53;33.64;95772.66;5056831;28;20497;-76
2021/06/25 11:28:27;;;;;;;10.70;9.07;;;;;;;18.89;34.56;95767.72;5073050;28;20178;-76
2021/06/25 11:31:14;;;;;;;12.63;9.82;;;;;;;19.53;32.81;95778.06;5082649;28;20097;-77
2021/06/25 11:33:46;;;;;;;;;;;;;;;19.46;33.48;95767.38;5064688;28;20080;-77